sensor_id;sensor_type;location;lat;lon;timestamp;temperature;humidity
37274;DHT22;23161;51.250;5.554;2023-02-04T00:00:46;7.40;99.90
37274;DHT22;23161;51.250;5.554;2023-02-04T00:03:13;7.40;99.90
37274;DHT22;23161;51.250;5.554;2023-02-04T00:05:39;7.40;99.90
37274;DHT22;23161;51.250;5.554;2023-02-04T00:08:06;7.40;99.90
37274;DHT22;23161;51.250;5.554;2023-02-04T00:10:32;7.40;99.90
37274;DHT22;23161;51.250;5.554;2023-02-04T00:12:58;7.40;99.90
37274;DHT22;23161;51.250;5.554;2023-02-04T00:15:24;7.30;99.90
37274;DHT22;23161;51.250;5.554;2023-02-04T00:17:50;7.40;99.90
37274;DHT22;23161;51.250;5.554;2023-02-04T00:20:16;7.30;99.90
37274;DHT22;23161;51.250;5.554;2023-02-04T00:22:42;7.30;99.90
37274;DHT22;23161;51.250;5.554;2023-02-04T00:25:08;7.30;99.90
37274;DHT22;23161;51.250;5.554;2023-02-04T00:27:34;7.30;99.90
37274;DHT22;23161;51.250;5.554;2023-02-04T00:30:00;7.30;99.90
37274;DHT22;23161;51.250;5.554;2023-02-04T00:32:26;7.30;99.90
37274;DHT22;23161;51.250;5.554;2023-02-04T00:34:53;7.40;99.90
37274;DHT22;23161;51.250;5.554;2023-02-04T00:37:19;7.30;99.90
37274;DHT22;23161;51.250;5.554;2023-02-04T00:39:45;7.40;99.90
37274;DHT22;23161;51.250;5.554;2023-02-04T00:42:11;7.30;99.90
37274;DHT22;23161;51.250;5.554;2023-02-04T00:44:37;7.40;99.90
37274;DHT22;23161;51.250;5.554;2023-02-04T00:47:03;7.40;99.90
37274;DHT22;23161;51.250;5.554;2023-02-04T00:49:29;7.40;99.90
37274;DHT22;23161;51.250;5.554;2023-02-04T00:51:55;7.40;99.90
37274;DHT22;23161;51.250;5.554;2023-02-04T00:54:21;7.40;99.90
37274;DHT22;23161;51.250;5.554;2023-02-04T00:56:47;7.30;99.90
37274;DHT22;23161;51.250;5.554;2023-02-04T00:59:12;7.30;99.90
37274;DHT22;23161;51.250;5.554;2023-02-04T01:01:39;7.30;99.90
37274;DHT22;23161;51.250;5.554;2023-02-04T01:04:05;7.40;99.90
37274;DHT22;23161;51.250;5.554;2023-02-04T01:06:31;7.30;99.90
37274;DHT22;23161;51.250;5.554;2023-02-04T01:08:57;7.40;99.90
37274;DHT22;23161;51.250;5.554;2023-02-04T01:11:23;7.30;99.90
37274;DHT22;23161;51.250;5.554;2023-02-04T01:13:48;7.40;99.90
37274;DHT22;23161;51.250;5.554;2023-02-04T01:16:14;7.30;99.90
37274;DHT22;23161;51.250;5.554;2023-02-04T01:18:42;7.30;99.90
37274;DHT22;23161;51.250;5.554;2023-02-04T01:21:09;7.30;99.90
37274;DHT22;23161;51.250;5.554;2023-02-04T01:23:35;7.30;99.90
37274;DHT22;23161;51.250;5.554;2023-02-04T01:26:01;7.30;99.90
37274;DHT22;23161;51.250;5.554;2023-02-04T01:28:27;7.30;99.90
37274;DHT22;23161;51.250;5.554;2023-02-04T01:30:54;7.20;99.90
37274;DHT22;23161;51.250;5.554;2023-02-04T01:33:20;7.20;99.90
37274;DHT22;23161;51.250;5.554;2023-02-04T01:35:46;7.20;99.90
37274;DHT22;23161;51.250;5.554;2023-02-04T01:38:12;7.20;99.90
37274;DHT22;23161;51.250;5.554;2023-02-04T01:40:39;7.20;99.90
37274;DHT22;23161;51.250;5.554;2023-02-04T01:43:05;7.20;99.90
37274;DHT22;23161;51.250;5.554;2023-02-04T01:45:31;7.20;99.90
37274;DHT22;23161;51.250;5.554;2023-02-04T01:48:02;7.20;99.90
37274;DHT22;23161;51.250;5.554;2023-02-04T01:50:29;7.20;99.90
37274;DHT22;23161;51.250;5.554;2023-02-04T01:52:55;7.20;99.90
37274;DHT22;23161;51.250;5.554;2023-02-04T01:55:24;7.20;99.90
37274;DHT22;23161;51.250;5.554;2023-02-04T01:57:51;7.10;99.90
37274;DHT22;23161;51.250;5.554;2023-02-04T02:00:25;7.10;99.90
37274;DHT22;23161;51.250;5.554;2023-02-04T02:02:52;7.10;99.90
37274;DHT22;23161;51.250;5.554;2023-02-04T02:08:04;7.00;99.90
37274;DHT22;23161;51.250;5.554;2023-02-04T02:10:30;6.90;99.90
37274;DHT22;23161;51.250;5.554;2023-02-04T02:12:57;6.90;99.90
37274;DHT22;23161;51.250;5.554;2023-02-04T02:15:24;6.70;99.90
37274;DHT22;23161;51.250;5.554;2023-02-04T02:17:51;6.70;99.90
37274;DHT22;23161;51.250;5.554;2023-02-04T02:20:20;6.50;99.90
37274;DHT22;23161;51.250;5.554;2023-02-04T02:22:51;6.50;99.90
37274;DHT22;23161;51.250;5.554;2023-02-04T02:25:17;6.40;99.90
37274;DHT22;23161;51.250;5.554;2023-02-04T02:27:42;6.30;99.90
37274;DHT22;23161;51.250;5.554;2023-02-04T02:30:10;6.20;99.90
37274;DHT22;23161;51.250;5.554;2023-02-04T02:32:37;6.10;99.90
37274;DHT22;23161;51.250;5.554;2023-02-04T02:35:03;6.10;99.90
37274;DHT22;23161;51.250;5.554;2023-02-04T02:37:30;6.00;99.90
37274;DHT22;23161;51.250;5.554;2023-02-04T02:39:56;5.90;99.90
37274;DHT22;23161;51.250;5.554;2023-02-04T02:42:23;5.90;99.90
37274;DHT22;23161;51.250;5.554;2023-02-04T02:44:49;5.90;99.90
37274;DHT22;23161;51.250;5.554;2023-02-04T02:47:18;5.90;99.90
37274;DHT22;23161;51.250;5.554;2023-02-04T02:49:49;5.80;99.90
37274;DHT22;23161;51.250;5.554;2023-02-04T02:52:16;5.70;99.90
37274;DHT22;23161;51.250;5.554;2023-02-04T02:54:42;5.60;99.90
37274;DHT22;23161;51.250;5.554;2023-02-04T02:57:21;5.50;99.90
37274;DHT22;23161;51.250;5.554;2023-02-04T02:59:48;5.40;99.90
37274;DHT22;23161;51.250;5.554;2023-02-04T03:02:17;5.30;99.90
37274;DHT22;23161;51.250;5.554;2023-02-04T03:04:49;5.30;99.90
37274;DHT22;23161;51.250;5.554;2023-02-04T03:07:17;5.20;99.90
37274;DHT22;23161;51.250;5.554;2023-02-04T03:09:44;5.10;99.90
37274;DHT22;23161;51.250;5.554;2023-02-04T03:12:09;5.10;99.90
37274;DHT22;23161;51.250;5.554;2023-02-04T03:14:36;5.00;99.90
37274;DHT22;23161;51.250;5.554;2023-02-04T03:17:04;5.00;99.90
37274;DHT22;23161;51.250;5.554;2023-02-04T03:19:32;4.90;99.90
37274;DHT22;23161;51.250;5.554;2023-02-04T03:21:58;4.80;99.90
37274;DHT22;23161;51.250;5.554;2023-02-04T03:24:24;4.70;99.90
37274;DHT22;23161;51.250;5.554;2023-02-04T03:26:51;4.60;99.90
37274;DHT22;23161;51.250;5.554;2023-02-04T03:29:17;4.50;99.90
37274;DHT22;23161;51.250;5.554;2023-02-04T03:31:42;4.50;99.90
37274;DHT22;23161;51.250;5.554;2023-02-04T03:34:08;4.50;99.90
37274;DHT22;23161;51.250;5.554;2023-02-04T03:36:34;4.70;99.90
37274;DHT22;23161;51.250;5.554;2023-02-04T03:39:01;4.60;99.90
37274;DHT22;23161;51.250;5.554;2023-02-04T03:41:28;4.60;99.90
37274;DHT22;23161;51.250;5.554;2023-02-04T03:43:54;4.60;99.90
37274;DHT22;23161;51.250;5.554;2023-02-04T03:46:21;4.60;99.90
37274;DHT22;23161;51.250;5.554;2023-02-04T03:48:48;4.60;99.90
37274;DHT22;23161;51.250;5.554;2023-02-04T03:51:14;4.60;99.90
37274;DHT22;23161;51.250;5.554;2023-02-04T03:53:40;4.60;99.90
37274;DHT22;23161;51.250;5.554;2023-02-04T03:56:06;4.50;99.90
37274;DHT22;23161;51.250;5.554;2023-02-04T03:58:32;4.50;99.90
37274;DHT22;23161;51.250;5.554;2023-02-04T04:00:58;4.50;99.90
37274;DHT22;23161;51.250;5.554;2023-02-04T04:03:24;4.50;99.90
37274;DHT22;23161;51.250;5.554;2023-02-04T04:05:50;4.50;99.90
37274;DHT22;23161;51.250;5.554;2023-02-04T04:08:16;4.50;99.90
37274;DHT22;23161;51.250;5.554;2023-02-04T04:10:42;4.50;99.90
37274;DHT22;23161;51.250;5.554;2023-02-04T04:13:08;4.50;99.90
37274;DHT22;23161;51.250;5.554;2023-02-04T04:15:34;4.50;99.90
37274;DHT22;23161;51.250;5.554;2023-02-04T04:17:59;4.50;99.90
37274;DHT22;23161;51.250;5.554;2023-02-04T04:20:26;4.50;99.90
37274;DHT22;23161;51.250;5.554;2023-02-04T04:22:53;4.50;99.90
37274;DHT22;23161;51.250;5.554;2023-02-04T04:25:19;4.50;99.90
37274;DHT22;23161;51.250;5.554;2023-02-04T04:27:45;4.40;99.90
37274;DHT22;23161;51.250;5.554;2023-02-04T04:30:11;4.40;99.90
37274;DHT22;23161;51.250;5.554;2023-02-04T04:32:37;4.40;99.90
37274;DHT22;23161;51.250;5.554;2023-02-04T04:35:03;4.40;99.90
37274;DHT22;23161;51.250;5.554;2023-02-04T04:37:29;4.40;99.90
37274;DHT22;23161;51.250;5.554;2023-02-04T04:39:55;4.40;99.90
37274;DHT22;23161;51.250;5.554;2023-02-04T04:42:21;4.40;99.90
37274;DHT22;23161;51.250;5.554;2023-02-04T04:44:47;4.40;99.90
37274;DHT22;23161;51.250;5.554;2023-02-04T04:47:13;4.50;99.90
37274;DHT22;23161;51.250;5.554;2023-02-04T04:49:39;4.60;99.90
37274;DHT22;23161;51.250;5.554;2023-02-04T04:52:05;4.70;99.90
37274;DHT22;23161;51.250;5.554;2023-02-04T04:54:31;4.80;99.90
37274;DHT22;23161;51.250;5.554;2023-02-04T04:56:56;4.90;99.90
37274;DHT22;23161;51.250;5.554;2023-02-04T04:59:22;5.00;99.90
37274;DHT22;23161;51.250;5.554;2023-02-04T05:01:48;5.10;99.90
37274;DHT22;23161;51.250;5.554;2023-02-04T05:04:13;5.20;99.90
37274;DHT22;23161;51.250;5.554;2023-02-04T05:06:39;5.30;99.90
37274;DHT22;23161;51.250;5.554;2023-02-04T05:09:05;5.30;99.90
37274;DHT22;23161;51.250;5.554;2023-02-04T05:11:31;5.30;99.90
37274;DHT22;23161;51.250;5.554;2023-02-04T05:13:57;5.30;99.90
37274;DHT22;23161;51.250;5.554;2023-02-04T05:16:22;5.30;99.90
37274;DHT22;23161;51.250;5.554;2023-02-04T05:18:49;5.40;99.90
37274;DHT22;23161;51.250;5.554;2023-02-04T05:21:15;5.40;99.90
37274;DHT22;23161;51.250;5.554;2023-02-04T05:23:40;5.40;99.90
37274;DHT22;23161;51.250;5.554;2023-02-04T05:26:06;5.50;99.90
37274;DHT22;23161;51.250;5.554;2023-02-04T05:28:33;5.40;99.90
37274;DHT22;23161;51.250;5.554;2023-02-04T05:30:59;5.40;99.90
37274;DHT22;23161;51.250;5.554;2023-02-04T05:33:24;5.40;99.90
37274;DHT22;23161;51.250;5.554;2023-02-04T05:35:50;5.30;99.90
37274;DHT22;23161;51.250;5.554;2023-02-04T05:38:16;5.20;99.90
37274;DHT22;23161;51.250;5.554;2023-02-04T05:40:42;5.10;99.90
37274;DHT22;23161;51.250;5.554;2023-02-04T05:43:08;5.00;99.90
37274;DHT22;23161;51.250;5.554;2023-02-04T05:45:33;4.90;99.90
37274;DHT22;23161;51.250;5.554;2023-02-04T05:47:59;4.90;99.90
37274;DHT22;23161;51.250;5.554;2023-02-04T05:50:25;4.80;99.90
37274;DHT22;23161;51.250;5.554;2023-02-04T05:53:07;4.80;99.90
37274;DHT22;23161;51.250;5.554;2023-02-04T05:55:32;4.70;99.90
37274;DHT22;23161;51.250;5.554;2023-02-04T05:57:58;4.70;99.90
37274;DHT22;23161;51.250;5.554;2023-02-04T06:00:25;4.60;99.90
37274;DHT22;23161;51.250;5.554;2023-02-04T06:02:50;4.60;99.90
37274;DHT22;23161;51.250;5.554;2023-02-04T06:05:16;4.50;99.90
37274;DHT22;23161;51.250;5.554;2023-02-04T06:07:43;4.40;99.90
37274;DHT22;23161;51.250;5.554;2023-02-04T06:10:10;4.40;99.90
37274;DHT22;23161;51.250;5.554;2023-02-04T06:12:36;4.30;99.90
37274;DHT22;23161;51.250;5.554;2023-02-04T06:15:02;4.30;99.90
37274;DHT22;23161;51.250;5.554;2023-02-04T06:17:28;4.20;99.90
37274;DHT22;23161;51.250;5.554;2023-02-04T06:19:54;4.20;99.90
37274;DHT22;23161;51.250;5.554;2023-02-04T06:22:20;4.20;99.90
37274;DHT22;23161;51.250;5.554;2023-02-04T06:24:49;4.30;99.90
37274;DHT22;23161;51.250;5.554;2023-02-04T06:27:15;4.30;99.90
37274;DHT22;23161;51.250;5.554;2023-02-04T06:29:52;4.40;99.90
37274;DHT22;23161;51.250;5.554;2023-02-04T06:32:19;4.40;99.90
37274;DHT22;23161;51.250;5.554;2023-02-04T06:34:45;4.40;99.90
37274;DHT22;23161;51.250;5.554;2023-02-04T06:37:11;4.30;99.90
37274;DHT22;23161;51.250;5.554;2023-02-04T06:39:38;4.30;99.90
37274;DHT22;23161;51.250;5.554;2023-02-04T06:42:04;4.30;99.90
37274;DHT22;23161;51.250;5.554;2023-02-04T06:44:30;4.40;99.90
37274;DHT22;23161;51.250;5.554;2023-02-04T06:46:56;4.40;99.90
37274;DHT22;23161;51.250;5.554;2023-02-04T06:49:22;4.50;99.90
37274;DHT22;23161;51.250;5.554;2023-02-04T06:51:50;4.60;99.90
37274;DHT22;23161;51.250;5.554;2023-02-04T06:54:16;4.70;99.90
37274;DHT22;23161;51.250;5.554;2023-02-04T06:56:42;4.70;99.90
37274;DHT22;23161;51.250;5.554;2023-02-04T06:59:09;4.80;99.90
37274;DHT22;23161;51.250;5.554;2023-02-04T07:01:35;4.90;99.90
37274;DHT22;23161;51.250;5.554;2023-02-04T07:04:01;4.90;99.90
37274;DHT22;23161;51.250;5.554;2023-02-04T07:06:27;4.90;99.90
37274;DHT22;23161;51.250;5.554;2023-02-04T07:08:53;4.90;99.90
37274;DHT22;23161;51.250;5.554;2023-02-04T07:11:18;5.00;99.90
37274;DHT22;23161;51.250;5.554;2023-02-04T07:13:44;4.90;99.90
37274;DHT22;23161;51.250;5.554;2023-02-04T07:16:10;5.00;99.90
37274;DHT22;23161;51.250;5.554;2023-02-04T07:18:36;5.00;99.90
37274;DHT22;23161;51.250;5.554;2023-02-04T07:21:02;5.00;99.90
37274;DHT22;23161;51.250;5.554;2023-02-04T07:23:28;5.00;99.90
37274;DHT22;23161;51.250;5.554;2023-02-04T07:25:54;5.00;99.90
37274;DHT22;23161;51.250;5.554;2023-02-04T07:28:24;5.10;99.90
37274;DHT22;23161;51.250;5.554;2023-02-04T07:30:50;5.10;99.90
37274;DHT22;23161;51.250;5.554;2023-02-04T07:33:16;5.10;99.90
37274;DHT22;23161;51.250;5.554;2023-02-04T07:35:42;5.10;99.90
37274;DHT22;23161;51.250;5.554;2023-02-04T07:38:09;5.10;99.90
37274;DHT22;23161;51.250;5.554;2023-02-04T07:40:35;5.20;99.90
37274;DHT22;23161;51.250;5.554;2023-02-04T07:43:01;5.30;99.90
37274;DHT22;23161;51.250;5.554;2023-02-04T07:45:27;5.30;99.90
37274;DHT22;23161;51.250;5.554;2023-02-04T07:47:53;5.40;99.90
37274;DHT22;23161;51.250;5.554;2023-02-04T07:50:19;5.40;99.90
37274;DHT22;23161;51.250;5.554;2023-02-04T07:52:45;5.50;99.90
37274;DHT22;23161;51.250;5.554;2023-02-04T07:55:10;5.50;99.90
37274;DHT22;23161;51.250;5.554;2023-02-04T07:57:36;5.60;99.90
37274;DHT22;23161;51.250;5.554;2023-02-04T08:00:04;5.70;99.90
37274;DHT22;23161;51.250;5.554;2023-02-04T08:02:38;5.80;99.90
37274;DHT22;23161;51.250;5.554;2023-02-04T08:05:04;5.90;99.90
37274;DHT22;23161;51.250;5.554;2023-02-04T08:07:31;5.90;99.90
37274;DHT22;23161;51.250;5.554;2023-02-04T08:09:57;5.90;99.90
37274;DHT22;23161;51.250;5.554;2023-02-04T08:12:22;5.90;99.90
37274;DHT22;23161;51.250;5.554;2023-02-04T08:14:48;6.00;99.90
37274;DHT22;23161;51.250;5.554;2023-02-04T08:17:14;6.10;99.90
37274;DHT22;23161;51.250;5.554;2023-02-04T08:19:40;6.20;99.90
37274;DHT22;23161;51.250;5.554;2023-02-04T08:22:06;6.40;99.90
37274;DHT22;23161;51.250;5.554;2023-02-04T08:24:32;6.50;99.90
37274;DHT22;23161;51.250;5.554;2023-02-04T08:26:57;6.70;99.90
37274;DHT22;23161;51.250;5.554;2023-02-04T08:29:24;6.80;99.90
37274;DHT22;23161;51.250;5.554;2023-02-04T08:31:53;6.90;99.90
37274;DHT22;23161;51.250;5.554;2023-02-04T08:34:19;6.90;99.90
37274;DHT22;23161;51.250;5.554;2023-02-04T08:36:44;7.00;99.90
37274;DHT22;23161;51.250;5.554;2023-02-04T08:39:11;7.10;99.90
37274;DHT22;23161;51.250;5.554;2023-02-04T08:41:37;7.30;99.90
37274;DHT22;23161;51.250;5.554;2023-02-04T08:44:03;7.30;99.90
37274;DHT22;23161;51.250;5.554;2023-02-04T08:46:30;7.40;99.90
37274;DHT22;23161;51.250;5.554;2023-02-04T08:48:56;7.50;99.90
37274;DHT22;23161;51.250;5.554;2023-02-04T08:51:21;7.70;99.90
37274;DHT22;23161;51.250;5.554;2023-02-04T08:53:47;8.00;99.90
37274;DHT22;23161;51.250;5.554;2023-02-04T08:56:13;8.30;99.90
37274;DHT22;23161;51.250;5.554;2023-02-04T08:58:45;8.60;99.90
37274;DHT22;23161;51.250;5.554;2023-02-04T09:01:12;9.00;99.90
37274;DHT22;23161;51.250;5.554;2023-02-04T09:03:39;9.40;99.90
37274;DHT22;23161;51.250;5.554;2023-02-04T09:06:05;9.60;99.90
37274;DHT22;23161;51.250;5.554;2023-02-04T09:08:32;9.60;99.90
37274;DHT22;23161;51.250;5.554;2023-02-04T09:10:58;9.80;99.90
37274;DHT22;23161;51.250;5.554;2023-02-04T09:13:24;9.70;99.90
37274;DHT22;23161;51.250;5.554;2023-02-04T09:15:50;9.70;99.90
37274;DHT22;23161;51.250;5.554;2023-02-04T09:18:17;10.20;99.90
37274;DHT22;23161;51.250;5.554;2023-02-04T09:20:48;11.30;99.90
37274;DHT22;23161;51.250;5.554;2023-02-04T09:23:14;11.80;99.90
37274;DHT22;23161;51.250;5.554;2023-02-04T09:25:41;12.00;99.90
37274;DHT22;23161;51.250;5.554;2023-02-04T09:28:09;12.70;99.90
37274;DHT22;23161;51.250;5.554;2023-02-04T09:30:36;12.60;99.90
37274;DHT22;23161;51.250;5.554;2023-02-04T09:33:03;12.10;99.90
37274;DHT22;23161;51.250;5.554;2023-02-04T09:35:28;11.60;99.90
37274;DHT22;23161;51.250;5.554;2023-02-04T09:37:54;11.30;99.90
37274;DHT22;23161;51.250;5.554;2023-02-04T09:40:20;11.10;99.90
37274;DHT22;23161;51.250;5.554;2023-02-04T09:42:48;10.90;99.90
37274;DHT22;23161;51.250;5.554;2023-02-04T09:45:18;10.80;99.90
37274;DHT22;23161;51.250;5.554;2023-02-04T09:47:44;10.70;99.90
37274;DHT22;23161;51.250;5.554;2023-02-04T09:50:21;10.40;99.90
37274;DHT22;23161;51.250;5.554;2023-02-04T09:52:50;10.40;99.90
37274;DHT22;23161;51.250;5.554;2023-02-04T09:55:19;10.40;99.90
37274;DHT22;23161;51.250;5.554;2023-02-04T09:57:46;10.40;99.90
37274;DHT22;23161;51.250;5.554;2023-02-04T10:00:17;10.40;99.90
37274;DHT22;23161;51.250;5.554;2023-02-04T10:02:43;10.30;99.90
37274;DHT22;23161;51.250;5.554;2023-02-04T10:05:14;10.40;99.90
37274;DHT22;23161;51.250;5.554;2023-02-04T10:07:42;10.40;99.90
37274;DHT22;23161;51.250;5.554;2023-02-04T10:10:16;10.40;99.90
37274;DHT22;23161;51.250;5.554;2023-02-04T10:12:43;10.40;99.90
37274;DHT22;23161;51.250;5.554;2023-02-04T10:15:14;10.50;99.90
37274;DHT22;23161;51.250;5.554;2023-02-04T10:17:41;10.30;99.90
37274;DHT22;23161;51.250;5.554;2023-02-04T10:20:17;10.50;99.90
37274;DHT22;23161;51.250;5.554;2023-02-04T10:22:45;10.70;99.90
37274;DHT22;23161;51.250;5.554;2023-02-04T10:25:19;10.70;99.90
37274;DHT22;23161;51.250;5.554;2023-02-04T10:27:55;11.10;99.90
37274;DHT22;23161;51.250;5.554;2023-02-04T10:30:36;11.30;99.90
37274;DHT22;23161;51.250;5.554;2023-02-04T10:33:21;11.40;99.90
37274;DHT22;23161;51.250;5.554;2023-02-04T10:35:52;11.40;99.90
37274;DHT22;23161;51.250;5.554;2023-02-04T10:38:18;11.50;99.90
37274;DHT22;23161;51.250;5.554;2023-02-04T10:40:45;11.50;99.90
37274;DHT22;23161;51.250;5.554;2023-02-04T10:43:21;11.50;99.90
37274;DHT22;23161;51.250;5.554;2023-02-04T10:46:07;11.50;99.90
37274;DHT22;23161;51.250;5.554;2023-02-04T10:48:40;11.50;99.90
37274;DHT22;23161;51.250;5.554;2023-02-04T10:51:10;11.80;99.90
37274;DHT22;23161;51.250;5.554;2023-02-04T10:53:37;12.50;99.90
37274;DHT22;23161;51.250;5.554;2023-02-04T10:56:21;12.70;99.90
37274;DHT22;23161;51.250;5.554;2023-02-04T10:58:48;12.80;99.90
37274;DHT22;23161;51.250;5.554;2023-02-04T11:01:15;12.90;99.90
37274;DHT22;23161;51.250;5.554;2023-02-04T11:03:42;13.00;99.90
37274;DHT22;23161;51.250;5.554;2023-02-04T11:06:13;13.00;99.90
37274;DHT22;23161;51.250;5.554;2023-02-04T11:08:40;13.00;99.90
37274;DHT22;23161;51.250;5.554;2023-02-04T11:11:13;12.90;99.90
37274;DHT22;23161;51.250;5.554;2023-02-04T11:26:46;13.60;99.90
37274;DHT22;23161;51.250;5.554;2023-02-04T11:31:55;14.30;99.90
37274;DHT22;23161;51.250;5.554;2023-02-04T11:39:39;14.00;99.90
37274;DHT22;23161;51.250;5.554;2023-02-04T11:47:37;13.90;99.90
37274;DHT22;23161;51.250;5.554;2023-02-04T11:50:21;13.70;99.90
37274;DHT22;23161;51.250;5.554;2023-02-04T11:52:48;13.30;99.90
37274;DHT22;23161;51.250;5.554;2023-02-04T11:55:14;13.30;99.90
37274;DHT22;23161;51.250;5.554;2023-02-04T11:57:42;13.30;99.90
37274;DHT22;23161;51.250;5.554;2023-02-04T12:00:22;13.40;99.90
37274;DHT22;23161;51.250;5.554;2023-02-04T12:02:49;13.40;99.90
37274;DHT22;23161;51.250;5.554;2023-02-04T12:05:17;13.50;99.90
37274;DHT22;23161;51.250;5.554;2023-02-04T12:07:47;13.80;99.90
37274;DHT22;23161;51.250;5.554;2023-02-04T12:12:53;13.70;99.90
37274;DHT22;23161;51.250;5.554;2023-02-04T12:15:39;13.60;99.90
37274;DHT22;23161;51.250;5.554;2023-02-04T12:18:08;13.60;99.90
37274;DHT22;23161;51.250;5.554;2023-02-04T12:20:35;13.60;99.90
37274;DHT22;23161;51.250;5.554;2023-02-04T12:23:01;13.70;99.90
37274;DHT22;23161;51.250;5.554;2023-02-04T12:25:27;13.70;99.90
37274;DHT22;23161;51.250;5.554;2023-02-04T12:27:54;13.80;99.90
37274;DHT22;23161;51.250;5.554;2023-02-04T12:30:24;14.10;99.90
37274;DHT22;23161;51.250;5.554;2023-02-04T12:32:50;14.10;99.90
37274;DHT22;23161;51.250;5.554;2023-02-04T12:35:17;13.70;99.90
37274;DHT22;23161;51.250;5.554;2023-02-04T12:37:43;13.90;99.90
37274;DHT22;23161;51.250;5.554;2023-02-04T12:40:16;14.40;99.90
37274;DHT22;23161;51.250;5.554;2023-02-04T12:42:43;14.60;99.90
37274;DHT22;23161;51.250;5.554;2023-02-04T12:45:10;14.80;99.90
37274;DHT22;23161;51.250;5.554;2023-02-04T12:47:37;15.00;99.90
37274;DHT22;23161;51.250;5.554;2023-02-04T12:50:04;15.00;99.90
37274;DHT22;23161;51.250;5.554;2023-02-04T12:52:30;15.30;99.90
37274;DHT22;23161;51.250;5.554;2023-02-04T12:54:56;15.90;99.90
37274;DHT22;23161;51.250;5.554;2023-02-04T12:57:24;15.60;99.90
37274;DHT22;23161;51.250;5.554;2023-02-04T12:59:50;15.20;99.90
37274;DHT22;23161;51.250;5.554;2023-02-04T13:02:16;14.90;99.90
37274;DHT22;23161;51.250;5.554;2023-02-04T13:04:42;15.00;99.90
37274;DHT22;23161;51.250;5.554;2023-02-04T13:07:08;14.80;99.90
37274;DHT22;23161;51.250;5.554;2023-02-04T13:09:35;14.70;99.90
37274;DHT22;23161;51.250;5.554;2023-02-04T13:12:02;14.60;99.90
37274;DHT22;23161;51.250;5.554;2023-02-04T13:14:28;14.30;99.90
37274;DHT22;23161;51.250;5.554;2023-02-04T13:16:53;14.20;99.90
37274;DHT22;23161;51.250;5.554;2023-02-04T13:19:20;14.10;99.90
37274;DHT22;23161;51.250;5.554;2023-02-04T13:21:46;14.20;99.90
37274;DHT22;23161;51.250;5.554;2023-02-04T13:24:11;14.10;99.90
37274;DHT22;23161;51.250;5.554;2023-02-04T13:26:38;14.00;99.90
37274;DHT22;23161;51.250;5.554;2023-02-04T13:29:04;13.80;99.90
37274;DHT22;23161;51.250;5.554;2023-02-04T13:31:29;13.50;99.90
37274;DHT22;23161;51.250;5.554;2023-02-04T13:33:55;13.50;99.90
37274;DHT22;23161;51.250;5.554;2023-02-04T13:36:21;13.40;99.90
37274;DHT22;23161;51.250;5.554;2023-02-04T13:38:47;13.00;99.90
37274;DHT22;23161;51.250;5.554;2023-02-04T13:41:12;13.00;99.90
37274;DHT22;23161;51.250;5.554;2023-02-04T13:43:38;12.90;99.90
37274;DHT22;23161;51.250;5.554;2023-02-04T13:46:04;12.70;99.90
37274;DHT22;23161;51.250;5.554;2023-02-04T13:48:30;12.60;99.90
37274;DHT22;23161;51.250;5.554;2023-02-04T13:50:56;12.50;99.90
37274;DHT22;23161;51.250;5.554;2023-02-04T13:53:22;12.40;99.90
37274;DHT22;23161;51.250;5.554;2023-02-04T13:55:49;12.30;99.90
37274;DHT22;23161;51.250;5.554;2023-02-04T13:58:14;12.20;99.90
37274;DHT22;23161;51.250;5.554;2023-02-04T14:00:41;12.10;99.90
37274;DHT22;23161;51.250;5.554;2023-02-04T14:03:07;12.30;99.90
37274;DHT22;23161;51.250;5.554;2023-02-04T14:05:32;12.30;99.90
37274;DHT22;23161;51.250;5.554;2023-02-04T14:07:59;12.20;99.90
37274;DHT22;23161;51.250;5.554;2023-02-04T14:10:25;12.10;99.90
37274;DHT22;23161;51.250;5.554;2023-02-04T14:12:51;12.20;99.90
37274;DHT22;23161;51.250;5.554;2023-02-04T14:15:17;12.20;99.90
37274;DHT22;23161;51.250;5.554;2023-02-04T14:17:43;12.10;99.90
37274;DHT22;23161;51.250;5.554;2023-02-04T14:20:09;12.20;99.90
37274;DHT22;23161;51.250;5.554;2023-02-04T14:22:35;12.20;99.90
37274;DHT22;23161;51.250;5.554;2023-02-04T14:25:00;12.30;99.90
37274;DHT22;23161;51.250;5.554;2023-02-04T14:27:26;12.30;99.90
37274;DHT22;23161;51.250;5.554;2023-02-04T14:29:52;12.30;99.90
37274;DHT22;23161;51.250;5.554;2023-02-04T14:32:18;12.30;99.90
37274;DHT22;23161;51.250;5.554;2023-02-04T14:34:45;12.10;99.90
37274;DHT22;23161;51.250;5.554;2023-02-04T14:37:11;12.20;99.90
37274;DHT22;23161;51.250;5.554;2023-02-04T14:39:38;12.10;99.90
37274;DHT22;23161;51.250;5.554;2023-02-04T14:42:04;12.20;99.90
37274;DHT22;23161;51.250;5.554;2023-02-04T14:44:30;12.10;99.90
37274;DHT22;23161;51.250;5.554;2023-02-04T14:46:57;12.10;99.90
37274;DHT22;23161;51.250;5.554;2023-02-04T14:49:23;12.10;99.90
37274;DHT22;23161;51.250;5.554;2023-02-04T14:51:49;12.00;99.90
37274;DHT22;23161;51.250;5.554;2023-02-04T14:54:15;12.00;99.90
37274;DHT22;23161;51.250;5.554;2023-02-04T14:56:41;12.00;99.90
37274;DHT22;23161;51.250;5.554;2023-02-04T14:59:07;12.20;99.90
37274;DHT22;23161;51.250;5.554;2023-02-04T15:01:32;12.10;99.90
37274;DHT22;23161;51.250;5.554;2023-02-04T15:03:58;12.10;99.90
37274;DHT22;23161;51.250;5.554;2023-02-04T15:06:24;11.90;99.90
37274;DHT22;23161;51.250;5.554;2023-02-04T15:08:50;12.00;99.90
37274;DHT22;23161;51.250;5.554;2023-02-04T15:11:16;12.00;99.90
37274;DHT22;23161;51.250;5.554;2023-02-04T15:13:42;12.00;99.90
37274;DHT22;23161;51.250;5.554;2023-02-04T15:16:08;12.00;99.90
37274;DHT22;23161;51.250;5.554;2023-02-04T15:18:34;12.00;99.90
37274;DHT22;23161;51.250;5.554;2023-02-04T15:21:00;11.90;99.90
37274;DHT22;23161;51.250;5.554;2023-02-04T15:23:26;11.80;99.90
37274;DHT22;23161;51.250;5.554;2023-02-04T15:25:52;11.70;99.90
37274;DHT22;23161;51.250;5.554;2023-02-04T15:28:22;11.60;99.90
37274;DHT22;23161;51.250;5.554;2023-02-04T15:30:49;11.50;99.90
37274;DHT22;23161;51.250;5.554;2023-02-04T15:33:14;11.40;99.90
37274;DHT22;23161;51.250;5.554;2023-02-04T15:35:41;11.30;99.90
37274;DHT22;23161;51.250;5.554;2023-02-04T15:38:08;11.30;99.90
37274;DHT22;23161;51.250;5.554;2023-02-04T15:40:34;11.10;99.90
37274;DHT22;23161;51.250;5.554;2023-02-04T15:42:59;11.10;99.90
37274;DHT22;23161;51.250;5.554;2023-02-04T15:45:25;11.00;99.90
37274;DHT22;23161;51.250;5.554;2023-02-04T15:47:51;10.90;99.90
37274;DHT22;23161;51.250;5.554;2023-02-04T15:50:17;10.80;99.90
37274;DHT22;23161;51.250;5.554;2023-02-04T15:52:43;10.70;99.90
37274;DHT22;23161;51.250;5.554;2023-02-04T15:55:09;10.70;99.90
37274;DHT22;23161;51.250;5.554;2023-02-04T15:57:35;10.60;99.90
37274;DHT22;23161;51.250;5.554;2023-02-04T16:00:03;10.60;99.90
37274;DHT22;23161;51.250;5.554;2023-02-04T16:02:30;10.50;99.90
37274;DHT22;23161;51.250;5.554;2023-02-04T16:04:56;10.50;99.90
37274;DHT22;23161;51.250;5.554;2023-02-04T16:07:23;10.40;99.90
37274;DHT22;23161;51.250;5.554;2023-02-04T16:09:49;10.30;99.90